Terminal Aerodrome Forecast
Issued by NWS

Home | Current Version | Previous Version | Text Only | Print | Product List | Glossary On
Versions: 1 2 3 4 5 6 7 8 9 10 11 12 13 14 15 16 17 18 19 20 21 22 23 24
821
FTUS44 KMOB 312359
TAFBFM
TAF
KBFM 312359Z 0100/0124 16008KT P6SM VCTS FEW020CB SCT050 BKN250
     FM010200 24003KT P6SM SCT250
     FM010900 VRB02KT 5SM BR SKC
     FM011600 14007KT P6SM VCTS FEW040CB FEW250=

USA.gov is the U.S. government's official web portal to all federal, state and local government web resources and services.